Time;durP1;ratioP1;P1;durP2;ratioP2;P2;SDS_P1;SDS_P2;PMS_P1;PMS_P2;Temp;Humidity;BMP_temperature;BMP_pressure;BME280_temperature;BME280_humidity;BME280_pressure;Samples;Min_cycle;Max_cycle;Signal;HPM_P1;HPM_P2
2023/05/22 04:00:33;;;;;;;0.60;0.20;;;;;;;;;;6002899;23;21229;-71
2023/05/22 04:03:02;;;;;;;0.60;0.10;;;19.90;54.60;;;;;;4970782;28;20454;-72
2023/05/22 04:05:31;;;;;;;0.60;0.10;;;19.90;56.00;;;;;;4974818;28;20449;-73
2023/05/22 04:07:59;;;;;;;0.60;0.20;;;;;;;;;;4974354;28;20453;-73
2023/05/22 04:10:27;;;;;;;1.90;1.80;;;19.80;58.00;;;;;;4974323;28;20430;-72
2023/05/22 04:12:55;;;;;;;0.60;0.20;;;19.70;58.40;;;;;;4974467;28;20524;-73
2023/05/22 04:15:23;;;;;;;1.40;1.30;;;;;;;;;;4974747;28;20434;-74
2023/05/22 04:17:53;;;;;;;0.60;0.10;;;19.60;59.80;;;;;;4974671;28;20453;-73
2023/05/22 04:20:21;;;;;;;0.60;0.10;;;19.60;60.30;;;;;;4974266;28;20946;-73
2023/05/22 04:22:50;;;;;;;0.70;0.10;;;19.60;61.00;;;;;;4964960;23;20646;-76
2023/05/22 04:25:18;;;;;;;0.73;0.40;;;19.60;61.30;;;;;;4936752;28;20500;-78
2023/05/22 04:27:46;;;;;;;0.60;0.10;;;19.70;61.40;;;;;;4938375;29;20447;-76
2023/05/22 04:30:15;;;;;;;0.60;0.17;;;19.70;62.10;;;;;;4937599;29;20524;-76
2023/05/22 04:32:43;;;;;;;0.60;0.20;;;19.70;62.20;;;;;;4932131;29;20484;-75
2023/05/22 04:35:17;;;;;;;1.53;0.40;;;19.60;61.90;;;;;;4933194;29;20494;-76
2023/05/22 04:37:45;;;;;;;0.60;0.23;;;19.60;63.50;;;;;;4937180;29;20490;-77
2023/05/22 04:40:14;;;;;;;5.03;1.90;;;19.60;75.10;;;;;;4935350;29;20494;-76
2023/05/22 04:42:42;;;;;;;0.70;0.47;;;19.60;62.70;;;;;;4936017;29;20487;-75
2023/05/22 04:45:12;;;;;;;0.60;0.20;;;19.60;74.60;;;;;;4936454;29;21016;-77
2023/05/22 04:47:41;;;;;;;0.90;0.60;;;19.60;63.10;;;;;;4937909;29;20872;-75
2023/05/22 04:50:10;;;;;;;0.70;0.43;;;19.60;63.40;;;;;;4937022;29;20940;-76
2023/05/22 04:52:40;;;;;;;0.60;0.17;;;19.60;64.10;;;;;;4936278;29;21034;-76
2023/05/22 04:55:10;;;;;;;0.60;0.20;;;19.60;64.40;;;;;;4943256;29;20534;-76
2023/05/22 04:57:38;;;;;;;0.70;0.40;;;19.50;65.20;;;;;;4943734;29;20462;-75
2023/05/22 05:00:08;;;;;;;0.60;0.10;;;19.60;67.30;;;;;;4944849;29;20474;-76
2023/05/22 05:02:36;;;;;;;0.60;0.20;;;19.70;67.20;;;;;;4943036;29;20491;-76
2023/05/22 05:05:04;;;;;;;0.60;0.10;;;19.70;67.20;;;;;;4936340;29;21042;-76
2023/05/22 05:07:32;;;;;;;0.60;0.10;;;19.70;78.20;;;;;;4943354;29;20555;-75
2023/05/22 05:10:01;;;;;;;0.60;0.17;;;19.80;66.50;;;;;;4948962;29;20468;-76
2023/05/22 05:12:29;;;;;;;0.60;0.10;;;19.80;66.00;;;;;;4948299;29;20459;-75
2023/05/22 05:14:57;;;;;;;0.80;0.67;;;19.90;64.60;;;;;;4944664;29;20451;-76
2023/05/22 05:17:25;;;;;;;0.60;0.20;;;19.90;64.70;;;;;;4939008;29;20539;-76
2023/05/22 05:19:53;;;;;;;0.60;0.10;;;20.00;64.20;;;;;;4940427;29;20457;-77
2023/05/22 05:22:21;;;;;;;0.60;0.10;;;20.00;65.00;;;;;;4940406;29;20499;-76
2023/05/22 05:24:49;;;;;;;0.60;0.10;;;20.10;64.60;;;;;;4939435;28;20470;-77
2023/05/22 05:27:19;;;;;;;0.60;0.10;;;20.10;76.40;;;;;;4940449;29;20999;-77
2023/05/22 05:29:47;;;;;;;0.60;0.10;;;20.20;65.80;;;;;;4940048;28;20560;-69
2023/05/22 05:32:15;;;;;;;0.60;0.10;;;20.30;71.30;;;;;;4935855;29;20476;-71
2023/05/22 05:34:43;;;;;;;0.60;0.10;;;21.60;84.80;;;;;;4937766;29;20502;-69
2023/05/22 05:37:11;;;;;;;0.60;0.20;;;20.50;73.90;;;;;;4944810;29;20523;-70
2023/05/22 05:39:39;;;;;;;7.63;6.93;;;20.50;84.70;;;;;;4948464;29;20448;-69
2023/05/22 05:42:07;;;;;;;0.60;0.20;;;20.70;73.40;;;;;;4939007;28;20511;-68
2023/05/22 05:44:36;;;;;;;0.60;0.10;;;20.80;70.40;;;;;;4939806;29;20444;-69
2023/05/22 05:47:05;;;;;;;0.60;0.10;;;20.90;67.80;;;;;;4939014;29;20628;-68
2023/05/22 05:49:33;;;;;;;0.60;0.10;;;;;;;;;;4938027;29;20451;-70
2023/05/22 05:52:03;;;;;;;0.60;0.20;;;21.00;66.40;;;;;;4938936;29;20566;-70
2023/05/22 05:54:31;;;;;;;0.60;0.20;;;21.00;64.60;;;;;;4943182;28;20453;-69
2023/05/22 05:56:59;;;;;;;0.60;0.10;;;21.10;65.10;;;;;;4937317;29;20498;-70
2023/05/22 05:59:27;;;;;;;0.60;0.20;;;21.10;65.40;;;;;;4936311;29;20492;-68
2023/05/22 06:01:56;;;;;;;0.60;0.10;;;21.20;64.20;;;;;;4933819;29;20572;-67
2023/05/22 06:04:26;;;;;;;0.60;0.10;;;21.40;64.00;;;;;;4923873;29;20468;-69
2023/05/22 06:06:54;;;;;;;0.60;0.13;;;21.40;64.40;;;;;;4937518;28;20479;-69
2023/05/22 06:09:23;;;;;;;0.60;0.10;;;;;;;;;;4938451;29;20480;-70
2023/05/22 06:11:51;;;;;;;1.43;1.33;;;21.50;61.70;;;;;;4938056;29;20909;-69
2023/05/22 06:14:19;;;;;;;0.60;0.20;;;21.60;60.40;;;;;;4937491;29;20495;-69
2023/05/22 06:16:47;;;;;;;0.60;0.10;;;21.60;71.70;;;;;;4938069;29;20958;-69
2023/05/22 06:19:16;;;;;;;0.60;0.10;;;21.70;59.50;;;;;;4937644;29;20460;-70
2023/05/22 06:21:45;;;;;;;0.60;0.20;;;;;;;;;;4937232;29;20838;-69
2023/05/22 06:24:12;;;;;;;0.60;0.10;;;21.70;58.60;;;;;;4938171;29;20957;-69
2023/05/22 06:26:40;;;;;;;0.60;0.13;;;21.80;56.30;;;;;;4937958;29;20491;-68
2023/05/22 06:29:08;;;;;;;0.60;0.10;;;21.90;56.10;;;;;;4937084;29;20481;-67
2023/05/22 06:31:37;;;;;;;0.60;0.10;;;21.90;54.00;;;;;;4935245;29;20993;-69
2023/05/22 06:34:05;;;;;;;0.60;0.10;;;21.90;65.40;;;;;;4946451;29;20516;-69
2023/05/22 06:36:34;;;;;;;0.60;0.13;;;21.80;60.50;;;;;;4933312;29;20496;-69
2023/05/22 06:39:02;;;;;;;0.60;0.20;;;21.80;51.00;;;;;;4937736;29;20458;-68
2023/05/22 06:41:32;;;;;;;0.60;0.10;;;21.90;48.90;;;;;;4937977;29;20468;-69
2023/05/22 06:44:00;;;;;;;0.60;0.10;;;21.70;44.60;;;;;;4938297;29;20484;-68
2023/05/22 06:46:28;;;;;;;0.60;0.10;;;21.80;46.90;;;;;;4938935;29;20460;-68
2023/05/22 06:48:56;;;;;;;0.60;0.20;;;21.80;48.20;;;;;;4939139;29;21005;-69
2023/05/22 06:51:25;;;;;;;0.60;0.10;;;;;;;;;;4936886;29;20481;-69
2023/05/22 06:53:55;;;;;;;0.60;0.10;;;21.90;49.40;;;;;;4937262;29;21317;-69
2023/05/22 06:56:24;;;;;;;0.70;0.50;;;21.90;59.30;;;;;;4938789;29;20879;-74
2023/05/22 06:58:52;;;;;;;0.60;0.10;;;21.90;47.30;;;;;;4939494;29;20479;-73
2023/05/22 07:01:20;;;;;;;0.80;0.60;;;21.90;41.50;;;;;;4936397;29;20560;-75
2023/05/22 07:03:48;;;;;;;0.60;0.10;;;21.90;52.60;;;;;;4938290;29;20481;-75
2023/05/22 07:06:16;;;;;;;0.60;0.10;;;22.00;40.60;;;;;;4940805;29;20948;-75
2023/05/22 07:08:45;;;;;;;0.60;0.20;;;22.00;40.60;;;;;;4944087;28;20473;-74
2023/05/22 07:11:14;;;;;;;0.60;0.10;;;22.10;42.40;;;;;;4944472;28;20619;-72
2023/05/22 07:13:42;;;;;;;0.60;0.10;;;22.10;42.00;;;;;;4934065;29;20551;-74
2023/05/22 07:16:10;;;;;;;0.60;0.10;;;22.20;43.80;;;;;;4934455;29;20488;-68
2023/05/22 07:18:39;;;;;;;0.60;0.10;;;22.20;47.70;;;;;;4935013;29;20985;-72
2023/05/22 07:21:07;;;;;;;0.60;0.20;;;;;;;;;;4939249;28;20497;-74
2023/05/22 07:23:35;;;;;;;0.60;0.10;;;22.30;50.10;;;;;;4930838;29;20552;-74
2023/05/22 07:26:03;;;;;;;0.60;0.20;;;22.40;50.90;;;;;;4935602;29;20574;-68
2023/05/22 07:28:32;;;;;;;0.60;0.10;;;22.30;62.10;;;;;;4936398;29;20450;-68
2023/05/22 07:31:00;;;;;;;0.70;0.20;;;22.40;46.90;;;;;;4936745;29;20537;-69
2023/05/22 07:33:28;;;;;;;0.60;0.20;;;22.30;41.50;;;;;;4934813;29;20470;-69
2023/05/22 07:35:56;;;;;;;0.60;0.10;;;22.30;43.10;;;;;;4932529;29;20504;-68
2023/05/22 07:38:24;;;;;;;0.60;0.10;;;22.30;54.10;;;;;;4936942;29;21033;-70
2023/05/22 07:40:52;;;;;;;1.00;0.30;;;22.40;41.10;;;;;;4937223;29;20501;-70
2023/05/22 07:43:20;;;;;;;0.70;0.20;;;22.40;51.50;;;;;;4936533;29;20579;-72
2023/05/22 07:45:49;;;;;;;0.70;0.10;;;22.50;48.70;;;;;;4936001;29;20484;-70
2023/05/22 07:48:17;;;;;;;0.93;0.40;;;22.60;38.90;;;;;;4937927;29;20819;-68
2023/05/22 07:50:46;;;;;;;0.67;0.10;;;22.70;40.70;;;;;;4936387;29;20451;-69
2023/05/22 07:53:15;;;;;;;0.80;0.60;;;22.70;40.40;;;;;;4935889;29;20859;-68
2023/05/22 07:55:43;;;;;;;0.97;0.87;;;22.70;35.40;;;;;;4936096;29;20447;-68
2023/05/22 07:58:11;;;;;;;0.60;0.20;;;22.70;34.10;;;;;;4936554;29;20458;-69
2023/05/22 08:00:39;;;;;;;0.70;0.10;;;22.80;34.80;;;;;;4936755;29;20557;-68
2023/05/22 08:03:08;;;;;;;0.70;0.33;;;22.80;34.30;;;;;;4935927;29;20483;-68
2023/05/22 08:05:36;;;;;;;0.60;0.20;;;22.80;34.60;;;;;;4936401;29;20460;-70
2023/05/22 08:08:04;;;;;;;0.70;0.30;;;22.90;46.00;;;;;;4936013;29;20450;-70
2023/05/22 08:10:32;;;;;;;0.70;0.20;;;23.10;42.90;;;;;;4931885;29;20497;-69
2023/05/22 08:13:22;;;;;;;0.63;0.20;;;23.20;41.80;;;;;;4931275;29;20459;-69
2023/05/22 08:15:50;;;;;;;0.70;0.20;;;23.20;42.80;;;;;;4935583;29;20999;-69
2023/05/22 08:18:28;;;;;;;0.70;0.10;;;23.30;54.00;;;;;;4917273;29;20455;-68
2023/05/22 08:20:58;;;;;;;0.70;0.20;;;23.40;35.40;;;;;;4916928;29;20567;-68
2023/05/22 08:23:27;;;;;;;0.70;0.20;;;23.40;35.60;;;;;;4941613;28;20486;-69
2023/05/22 08:25:54;;;;;;;0.70;0.10;;;23.50;48.50;;;;;;4950865;28;20458;-70
2023/05/22 08:28:22;;;;;;;0.70;0.10;;;23.50;34.30;;;;;;4954942;28;20443;-70
2023/05/22 08:30:50;;;;;;;0.70;0.10;;;23.50;35.00;;;;;;4956347;28;20993;-69
2023/05/22 08:33:18;;;;;;;0.70;0.10;;;23.50;31.10;;;;;;4954545;28;20453;-69
2023/05/22 08:35:48;;;;;;;0.70;0.10;;;23.50;41.80;;;;;;4955295;28;20492;-69
2023/05/22 08:38:16;;;;;;;0.70;0.20;;;23.50;39.80;;;;;;4939731;28;20577;-70
2023/05/22 08:40:48;;;;;;;0.70;0.13;;;23.70;30.90;;;;;;4935201;29;20450;-70
2023/05/22 08:43:20;;;;;;;0.70;0.10;;;23.80;30.50;;;;;;4935300;29;20503;-71
2023/05/22 08:45:56;;;;;;;0.70;0.10;;;23.90;30.70;;;;;;4937109;29;20503;-72
2023/05/22 08:48:28;;;;;;;0.70;0.10;;;24.00;30.90;;;;;;4936761;29;20549;-69
2023/05/22 08:51:02;;;;;;;0.70;0.20;;;24.10;31.30;;;;;;4935911;29;20589;-70
2023/05/22 08:53:33;;;;;;;0.70;0.10;;;24.10;30.20;;;;;;4934512;29;20464;-71
2023/05/22 08:56:03;;;;;;;0.70;0.20;;;24.20;29.40;;;;;;4936151;29;20475;-70
2023/05/22 08:58:33;;;;;;;0.70;0.10;;;24.30;28.00;;;;;;4934070;29;20955;-69
2023/05/22 09:01:01;;;;;;;0.70;0.20;;;24.30;27.70;;;;;;4935390;29;20507;-68
2023/05/22 09:03:31;;;;;;;0.70;0.20;;;24.30;27.10;;;;;;4934411;29;20483;-68
2023/05/22 09:06:02;;;;;;;0.70;0.10;;;24.40;26.50;;;;;;4938607;28;20536;-68
2023/05/22 09:08:30;;;;;;;0.70;0.10;;;24.30;36.30;;;;;;4935262;29;20549;-69
2023/05/22 09:10:58;;;;;;;1.00;0.20;;;24.30;25.10;;;;;;4943856;28;21130;-68
2023/05/22 09:13:28;;;;;;;0.70;0.10;;;24.30;34.60;;;;;;4942992;28;20458;-69
2023/05/22 09:15:59;;;;;;;0.70;0.20;;;24.40;22.50;;;;;;4937010;29;20452;-70
2023/05/22 09:18:28;;;;;;;0.70;0.10;;;24.40;22.10;;;;;;4936658;29;20522;-70
2023/05/22 09:21:02;;;;;;;0.70;0.20;;;24.60;23.40;;;;;;4934846;29;20956;-68
2023/05/22 09:23:33;;;;;;;2.30;1.00;;;24.70;21.60;;;;;;4937741;29;20498;-70
2023/05/22 09:26:02;;;;;;;0.70;0.20;;;24.70;30.30;;;;;;4939021;29;20855;-69
2023/05/22 09:28:34;;;;;;;0.70;0.20;;;24.80;21.90;;;;;;4938976;29;20455;-69
2023/05/22 09:31:02;;;;;;;0.70;0.10;;;24.90;22.20;;;;;;4938491;29;20949;-69
2023/05/22 09:33:32;;;;;;;0.70;0.20;;;25.00;21.70;;;;;;4936452;29;20450;-69
2023/05/22 09:36:01;;;;;;;0.70;0.20;;;25.00;29.80;;;;;;4935482;29;20532;-70
2023/05/22 09:38:30;;;;;;;0.70;0.20;;;25.10;27.30;;;;;;4934931;29;20858;-70
2023/05/22 09:40:58;;;;;;;1.00;0.20;;;25.10;18.10;;;;;;4934771;29;20472;-68
2023/05/22 09:43:26;;;;;;;0.70;0.10;;;25.10;18.10;;;;;;4935730;29;20980;-69
2023/05/22 09:46:00;;;;;;;0.70;0.10;;;25.20;26.00;;;;;;4934638;29;20483;-70
2023/05/22 09:48:29;;;;;;;0.70;0.20;;;25.30;17.90;;;;;;4934593;29;20929;-69
2023/05/22 09:51:02;;;;;;;0.80;0.20;;;25.40;20.10;;;;;;4935140;29;20865;-68
2023/05/22 09:53:32;;;;;;;0.70;0.20;;;25.40;21.40;;;;;;4934278;29;20483;-70
2023/05/22 09:56:01;;;;;;;0.70;0.10;;;25.50;23.40;;;;;;4930705;29;20504;-69
2023/05/22 09:58:33;;;;;;;0.70;0.10;;;25.40;27.20;;;;;;4929469;29;20447;-71
2023/05/22 10:01:01;;;;;;;2.00;0.50;;;25.50;26.40;;;;;;4934952;29;20486;-73
2023/05/22 10:03:32;;;;;;;0.70;0.20;;;25.60;28.10;;;;;;4934495;29;20540;-70
2023/05/22 10:06:02;;;;;;;1.83;1.70;;;25.60;28.50;;;;;;4935481;29;20534;-71
2023/05/22 10:08:40;;;;;;;0.70;0.10;;;25.60;38.00;;;;;;4934830;29;20478;-70
2023/05/22 10:11:09;;;;;;;0.70;0.13;;;25.60;28.00;;;;;;4944385;28;20529;-71
2023/05/22 10:13:38;;;;;;;0.70;0.30;;;25.70;28.70;;;;;;4953533;28;20482;-72
2023/05/22 10:16:06;;;;;;;7.00;2.57;;;25.70;37.90;;;;;;4930762;28;20495;-72
2023/05/22 10:18:35;;;;;;;1.30;1.20;;;25.60;27.40;;;;;;4927703;29;20478;-70
2023/05/22 10:21:05;;;;;;;0.70;0.20;;;25.70;28.70;;;;;;4933756;29;20471;-71
2023/05/22 10:23:33;;;;;;;0.70;0.10;;;;;;;;;;4976077;23;20563;-72
2023/05/22 10:26:02;;;;;;;0.70;0.10;;;25.80;27.90;;;;;;4951176;28;20881;-72
2023/05/22 10:28:38;;;;;;;0.70;0.10;;;25.80;28.60;;;;;;4951184;29;20454;-71
2023/05/22 10:31:14;;;;;;;0.70;0.17;;;25.90;28.70;;;;;;4950440;29;20448;-70
2023/05/22 10:33:48;;;;;;;0.70;0.20;;;26.00;29.00;;;;;;4952368;28;20858;-71
2023/05/22 10:36:36;;;;;;;0.70;0.20;;;26.10;28.10;;;;;;4953035;29;20845;-70
2023/05/22 10:39:21;;;;;;;0.70;0.17;;;26.10;28.50;;;;;;4953646;28;20477;-70
2023/05/22 10:41:49;;;;;;;1.87;0.30;;;;;;;;;;4953594;29;20449;-71
2023/05/22 10:44:18;;;;;;;1.10;0.30;;;;;;;;;;4952556;28;20480;-71
2023/05/22 10:46:48;;;;;;;0.70;0.10;;;26.40;27.40;;;;;;4948208;29;21186;-71
2023/05/22 10:49:21;;;;;;;0.70;0.10;;;26.30;27.00;;;;;;4954050;28;20569;-70
2023/05/22 10:51:56;;;;;;;1.27;1.03;;;26.40;26.00;;;;;;4955871;29;20465;-71
2023/05/22 10:54:40;;;;;;;2.80;2.70;;;26.30;25.10;;;;;;4957678;28;20434;-72
2023/05/22 10:57:09;;;;;;;0.80;0.40;;;26.40;25.10;;;;;;4957631;29;20505;-70
2023/05/22 10:59:37;;;;;;;0.70;0.20;;;26.40;26.50;;;;;;4956923;28;20449;-70
2023/05/22 11:02:06;;;;;;;1.27;0.30;;;;;;;;;;4955895;28;20447;-70
2023/05/22 11:04:38;;;;;;;0.70;0.27;;;;;;;;;;4957141;28;20986;-70
2023/05/22 11:07:11;;;;;;;1.00;0.57;;;;;;;;;;4957528;28;20530;-72
2023/05/22 11:09:41;;;;;;;0.70;0.10;;;26.70;24.10;;;;;;4959536;29;20477;-72
2023/05/22 11:12:19;;;;;;;1.17;0.20;;;26.70;25.00;;;;;;4957817;28;20455;-72
2023/05/22 11:14:55;;;;;;;0.70;0.10;;;26.80;24.70;;;;;;4958209;29;20485;-72
2023/05/22 11:17:26;;;;;;;0.93;0.83;;;26.90;24.70;;;;;;4957885;29;20446;-72
2023/05/22 11:19:58;;;;;;;0.70;0.10;;;26.90;22.90;;;;;;4957791;29;20454;-72
2023/05/22 11:22:33;;;;;;;0.70;0.10;;;26.90;24.30;;;;;;4958421;28;20485;-72
2023/05/22 11:25:15;;;;;;;0.70;0.10;;;27.00;22.40;;;;;;4958187;29;20474;-72
2023/05/22 11:27:44;;;;;;;2.30;2.20;;;27.00;20.90;;;;;;4958852;29;20952;-72
2023/05/22 11:30:12;;;;;;;0.70;0.10;;;;;;;;;;4958118;28;20450;-72
2023/05/22 11:32:43;;;;;;;1.20;0.60;;;27.00;19.90;;;;;;4959043;28;20467;-73
2023/05/22 11:35:14;;;;;;;0.70;0.10;;;27.00;21.00;;;;;;4958602;29;20904;-72
2023/05/22 11:37:44;;;;;;;0.70;0.30;;;27.20;19.70;;;;;;4957162;28;20501;-73
2023/05/22 11:40:13;;;;;;;0.97;0.87;;;27.20;19.10;;;;;;4959224;29;20458;-74
2023/05/22 11:42:41;;;;;;;0.70;0.10;;;;;;;;;;4957852;28;20553;-73
2023/05/22 11:45:10;;;;;;;0.70;0.20;;;27.20;19.10;;;;;;4957486;29;20525;-72
2023/05/22 11:47:39;;;;;;;0.70;0.17;;;27.20;18.30;;;;;;4957227;29;20446;-72
2023/05/22 11:50:09;;;;;;;0.70;0.17;;;27.20;17.30;;;;;;4961793;28;20455;-71
2023/05/22 11:52:39;;;;;;;0.70;0.20;;;27.20;17.80;;;;;;4956746;28;20501;-72
2023/05/22 11:55:10;;;;;;;2.20;1.90;;;27.30;17.90;;;;;;4956316;29;20586;-72
2023/05/22 11:57:38;;;;;;;1.10;0.83;;;27.30;15.70;;;;;;4956849;29;20462;-73
2023/05/22 12:00:07;;;;;;;0.90;0.60;;;27.10;14.50;;;;;;4957406;29;20517;-73
2023/05/22 12:02:35;;;;;;;0.80;0.40;;;27.00;16.20;;;;;;4957152;28;20529;-73
2023/05/22 12:05:04;;;;;;;0.80;0.57;;;27.00;17.30;;;;;;4957015;29;20494;-73
2023/05/22 12:07:32;;;;;;;0.70;0.10;;;27.10;17.30;;;;;;4955953;29;20486;-72
2023/05/22 12:10:02;;;;;;;0.70;0.20;;;;;;;;;;4956077;29;20637;-73
2023/05/22 12:12:31;;;;;;;0.80;0.50;;;27.30;14.30;;;;;;4956222;28;20467;-72
2023/05/22 12:14:59;;;;;;;0.70;0.10;;;27.40;13.20;;;;;;4956874;29;20471;-73
2023/05/22 12:17:28;;;;;;;0.70;0.20;;;27.50;12.40;;;;;;4956469;29;20453;-73
2023/05/22 12:19:57;;;;;;;1.30;1.20;;;27.50;20.80;;;;;;4955312;29;20943;-73
2023/05/22 12:22:28;;;;;;;0.70;0.10;;;27.60;10.00;;;;;;4955106;28;20514;-72
2023/05/22 12:24:56;;;;;;;0.70;0.20;;;;;;;;;;4956589;29;20533;-72
2023/05/22 12:27:24;;;;;;;0.70;0.20;;;;;;;;;;4956714;29;20454;-74
2023/05/22 12:29:56;;;;;;;0.70;0.20;;;27.80;9.10;;;;;;4956467;28;20447;-72
2023/05/22 12:32:25;;;;;;;0.70;0.10;;;;;;;;;;4956020;28;20885;-72
2023/05/22 12:34:58;;;;;;;0.70;0.10;;;27.90;9.80;;;;;;4956351;28;20457;-72
2023/05/22 12:37:26;;;;;;;0.80;0.30;;;28.00;10.00;;;;;;4956581;29;20442;-73
2023/05/22 12:39:56;;;;;;;0.73;0.27;;;28.10;7.40;;;;;;4957181;29;20449;-73
2023/05/22 12:42:24;;;;;;;0.80;0.50;;;28.20;8.10;;;;;;4956729;28;20467;-72
2023/05/22 12:44:55;;;;;;;0.70;0.20;;;28.20;6.50;;;;;;4956535;29;20526;-72
2023/05/22 12:47:24;;;;;;;0.70;0.10;;;28.20;6.70;;;;;;4958791;28;20483;-72
2023/05/22 12:49:52;;;;;;;0.70;0.20;;;28.10;6.40;;;;;;4956678;28;20468;-72
2023/05/22 12:52:20;;;;;;;0.70;0.10;;;28.00;5.60;;;;;;4956942;28;20501;-73
2023/05/22 12:54:49;;;;;;;0.70;0.10;;;28.00;5.30;;;;;;4956629;28;20999;-72
2023/05/22 12:57:17;;;;;;;0.70;0.10;;;28.20;7.60;;;;;;4959044;29;20457;-73
2023/05/22 12:59:45;;;;;;;0.70;0.20;;;;;;;;;;4955442;29;20458;-73
2023/05/22 13:02:15;;;;;;;0.70;0.20;;;28.20;5.00;;;;;;4955556;28;20473;-71
2023/05/22 13:04:43;;;;;;;0.70;0.10;;;28.20;5.00;;;;;;4955639;29;20491;-71
2023/05/22 13:07:11;;;;;;;0.70;0.13;;;28.10;3.10;;;;;;4954603;29;20491;-71
2023/05/22 13:09:39;;;;;;;0.90;0.80;;;27.90;1.10;;;;;;4955276;29;20546;-72
2023/05/22 13:12:09;;;;;;;1.20;0.70;;;27.80;1.00;;;;;;4955440;28;20451;-71
2023/05/22 13:14:39;;;;;;;1.20;0.67;;;27.80;1.00;;;;;;4955317;29;20943;-72
2023/05/22 13:17:07;;;;;;;0.70;0.13;;;27.70;1.30;;;;;;4954643;29;20935;-73
2023/05/22 13:19:36;;;;;;;0.70;0.10;;;25.00;1.00;;;;;;4957106;28;20542;-72
2023/05/22 13:22:06;;;;;;;1.00;0.20;;;27.60;3.80;;;;;;4956389;28;20451;-71
2023/05/22 13:24:34;;;;;;;0.70;0.10;;;27.60;1.00;;;;;;4961783;28;20468;-71
2023/05/22 13:27:02;;;;;;;0.70;0.20;;;;;;;;;;4958865;28;20537;-72
2023/05/22 13:29:30;;;;;;;0.70;0.20;;;27.70;1.00;;;;;;4961910;28;20546;-70
2023/05/22 13:31:57;;;;;;;1.57;0.30;;;27.80;1.90;;;;;;4969402;28;20640;-71
2023/05/22 13:34:25;;;;;;;0.70;0.20;;;28.00;1.00;;;;;;4967831;28;20499;-71
2023/05/22 13:36:55;;;;;;;0.70;0.13;;;28.20;1.00;;;;;;4964477;28;20467;-72
2023/05/22 13:39:23;;;;;;;0.70;0.10;;;28.40;1.00;;;;;;4968081;28;20478;-71
2023/05/22 13:41:52;;;;;;;0.70;0.17;;;28.50;1.00;;;;;;4968181;28;20439;-71
2023/05/22 13:44:20;;;;;;;0.70;0.20;;;28.60;1.00;;;;;;4967117;28;20541;-70
2023/05/22 13:46:48;;;;;;;0.70;0.20;;;28.60;1.00;;;;;;4965698;28;20474;-71
2023/05/22 13:49:16;;;;;;;0.70;0.30;;;28.60;1.00;;;;;;4963335;28;20439;-70
2023/05/22 13:51:44;;;;;;;0.70;0.10;;;28.50;1.00;;;;;;4965809;28;20477;-71
2023/05/22 13:54:13;;;;;;;0.90;0.50;;;28.00;1.00;;;;;;4965010;28;20905;-71
2023/05/22 13:56:41;;;;;;;0.70;0.10;;;28.40;1.00;;;;;;4963555;28;20435;-71
2023/05/22 13:59:09;;;;;;;0.70;0.10;;;28.40;1.00;;;;;;4962853;28;20537;-71
2023/05/22 14:01:37;;;;;;;0.70;0.20;;;28.40;1.00;;;;;;4963217;28;20550;-72
2023/05/22 14:04:05;;;;;;;0.70;0.20;;;28.60;1.00;;;;;;4963082;28;20462;-72
2023/05/22 14:06:33;;;;;;;0.70;0.20;;;28.90;1.00;;;;;;4963945;28;20562;-72
2023/05/22 14:09:01;;;;;;;0.70;0.10;;;29.10;1.00;;;;;;4964968;28;20525;-72
2023/05/22 14:11:30;;;;;;;0.70;0.10;;;29.30;1.00;;;;;;4961807;28;20484;-70
2023/05/22 14:13:58;;;;;;;2.40;2.30;;;29.40;1.00;;;;;;4963996;28;20522;-70
2023/05/22 14:16:26;;;;;;;0.70;0.20;;;29.50;1.00;;;;;;4964272;28;20472;-71
2023/05/22 14:18:54;;;;;;;0.70;0.20;;;29.60;1.00;;;;;;4961988;28;20481;-71
2023/05/22 14:21:21;;;;;;;0.70;0.20;;;29.70;1.00;;;;;;4964012;28;20456;-71
2023/05/22 14:23:49;;;;;;;0.70;0.10;;;29.70;1.00;;;;;;4964696;28;20914;-70
2023/05/22 14:26:17;;;;;;;0.70;0.30;;;29.90;1.00;;;;;;4963749;28;20512;-71
2023/05/22 14:28:46;;;;;;;0.70;0.20;;;30.00;1.00;;;;;;4968396;28;20483;-71
2023/05/22 14:31:14;;;;;;;0.70;0.10;;;30.10;1.00;;;;;;4965751;28;20824;-71
2023/05/22 14:33:42;;;;;;;0.70;0.20;;;30.00;1.00;;;;;;4965488;28;20547;-71
2023/05/22 14:36:10;;;;;;;1.63;1.03;;;29.70;1.00;;;;;;4968909;28;20489;-71
2023/05/22 14:38:38;;;;;;;0.70;0.17;;;;;;;;;;4967259;28;20475;-70
2023/05/22 14:41:06;;;;;;;0.70;0.20;;;;;;;;;;4965969;28;20556;-71
2023/05/22 14:43:35;;;;;;;2.37;1.70;;;29.70;1.00;;;;;;4967744;28;20460;-71
2023/05/22 14:46:05;;;;;;;2.67;1.90;;;29.70;1.00;;;;;;4966773;28;20487;-71
2023/05/22 14:48:33;;;;;;;0.70;0.20;;;29.70;1.00;;;;;;4966402;28;20467;-70
2023/05/22 14:51:01;;;;;;;0.70;0.30;;;29.80;1.00;;;;;;4967340;28;20625;-73
2023/05/22 14:53:29;;;;;;;0.70;0.20;;;29.90;1.00;;;;;;4966327;28;20461;-73
2023/05/22 14:55:56;;;;;;;1.00;0.70;;;29.90;1.00;;;;;;4962720;28;20515;-72
2023/05/22 14:58:24;;;;;;;0.70;0.10;;;29.70;1.00;;;;;;4956600;28;20504;-72
2023/05/22 15:00:52;;;;;;;0.70;0.20;;;29.60;1.00;;;;;;4957938;28;20985;-72
2023/05/22 15:03:22;;;;;;;0.70;0.20;;;29.40;1.00;;;;;;4957465;28;20929;-72
2023/05/22 15:05:50;;;;;;;0.70;0.10;;;29.30;1.00;;;;;;4957019;28;20453;-72
2023/05/22 15:08:19;;;;;;;0.70;0.10;;;29.10;1.00;;;;;;4958105;29;20894;-71
2023/05/22 15:10:47;;;;;;;0.70;0.20;;;28.90;1.00;;;;;;4957151;29;20938;-72
2023/05/22 15:13:15;;;;;;;0.70;0.10;;;28.70;1.00;;;;;;4957185;28;20482;-68
2023/05/22 15:15:43;;;;;;;0.70;0.10;;;28.70;1.00;;;;;;4958500;29;20520;-71
2023/05/22 15:18:12;;;;;;;1.83;1.73;;;28.50;1.00;;;;;;4956747;29;21021;-69
2023/05/22 15:20:41;;;;;;;1.53;1.37;;;28.20;1.00;;;;;;4956810;29;20945;-67
2023/05/22 15:23:09;;;;;;;1.07;0.70;;;28.00;1.00;;;;;;4956205;28;20556;-71
2023/05/22 15:25:37;;;;;;;0.70;0.20;;;27.70;1.00;;;;;;4955695;29;20527;-68
2023/05/22 15:28:06;;;;;;;0.70;0.10;;;27.50;1.00;;;;;;4956527;28;20515;-69
2023/05/22 15:30:37;;;;;;;0.70;0.20;;;27.30;1.00;;;;;;4956410;29;20450;-68
2023/05/22 15:33:05;;;;;;;1.30;0.43;;;27.20;1.00;;;;;;4955376;28;20466;-69
2023/05/22 15:35:33;;;;;;;0.70;0.20;;;27.10;1.00;;;;;;4954975;28;20517;-69
2023/05/22 15:38:02;;;;;;;0.70;0.20;;;27.00;1.00;;;;;;4955395;29;20959;-69
2023/05/22 15:40:31;;;;;;;0.70;0.20;;;;;;;;;;4955756;28;20466;-70
2023/05/22 15:43:02;;;;;;;0.70;0.20;;;26.90;1.00;;;;;;4951073;28;20501;-68
2023/05/22 15:45:30;;;;;;;0.70;0.10;;;;;;;;;;4948806;29;20534;-69
2023/05/22 15:47:59;;;;;;;0.70;0.13;;;;;;;;;;4955843;28;20474;-70
2023/05/22 15:50:26;;;;;;;0.70;0.20;;;27.30;1.00;;;;;;4956057;29;20446;-70
2023/05/22 15:52:55;;;;;;;0.70;0.30;;;;;;;;;;4955461;28;20589;-69
2023/05/22 15:55:24;;;;;;;0.70;0.10;;;27.70;1.00;;;;;;4955867;29;21010;-71
2023/05/22 15:57:53;;;;;;;0.70;0.20;;;;;;;;;;4955766;28;20449;-69
2023/05/22 16:00:21;;;;;;;0.80;0.40;;;27.80;1.00;;;;;;4955767;29;20506;-69
2023/05/22 16:02:49;;;;;;;0.70;0.20;;;;;;;;;;4963724;28;20535;-70
2023/05/22 16:05:17;;;;;;;0.70;0.17;;;28.10;1.00;;;;;;4958169;28;20466;-69
2023/05/22 16:07:46;;;;;;;0.70;0.20;;;;;;;;;;4946178;29;20534;-69
2023/05/22 16:10:14;;;;;;;0.70;0.10;;;28.40;1.00;;;;;;4954194;29;20478;-68
2023/05/22 16:12:43;;;;;;;0.80;0.57;;;28.60;1.00;;;;;;4955063;28;20471;-70
2023/05/22 16:15:11;;;;;;;1.37;0.70;;;28.60;1.00;;;;;;4953570;29;20454;-70
2023/05/22 16:17:39;;;;;;;0.70;0.20;;;28.50;1.00;;;;;;4954911;29;20507;-69
2023/05/22 16:20:08;;;;;;;4.30;4.07;;;28.30;1.00;;;;;;4954753;29;20945;-70
2023/05/22 16:22:36;;;;;;;2.10;0.40;;;28.00;1.00;;;;;;4951406;28;20534;-69
2023/05/22 16:25:15;;;;;;;0.97;0.87;;;27.80;1.00;;;;;;4954259;29;20818;-69
2023/05/22 16:27:45;;;;;;;0.80;0.53;;;27.40;1.00;;;;;;4939205;29;20569;-70
2023/05/22 16:30:15;;;;;;;1.77;1.67;;;27.20;1.00;;;;;;4953220;29;20454;-70
2023/05/22 16:32:45;;;;;;;0.70;0.10;;;27.00;1.00;;;;;;4953578;28;20846;-70
2023/05/22 16:35:13;;;;;;;0.70;0.20;;;27.10;1.00;;;;;;4954810;29;20450;-69
2023/05/22 16:37:41;;;;;;;0.70;0.20;;;;;;;;;;4953661;29;20454;-71
2023/05/22 16:40:10;;;;;;;0.70;0.20;;;27.10;1.00;;;;;;4953162;28;20447;-69
2023/05/22 16:42:38;;;;;;;0.70;0.10;;;27.30;1.00;;;;;;4953605;28;20561;-72
2023/05/22 16:45:08;;;;;;;0.70;0.10;;;27.30;1.00;;;;;;4955412;29;20481;-69
2023/05/22 16:47:38;;;;;;;0.70;0.20;;;27.30;1.00;;;;;;4955016;28;20488;-69
2023/05/22 16:50:07;;;;;;;0.70;0.30;;;27.40;1.00;;;;;;4955353;29;20870;-71
2023/05/22 16:52:35;;;;;;;0.93;0.47;;;27.30;1.00;;;;;;4954947;28;20490;-70
2023/05/22 16:55:04;;;;;;;1.93;1.03;;;;;;;;;;4954317;29;20505;-71
2023/05/22 16:57:31;;;;;;;0.80;0.30;;;27.00;1.00;;;;;;4954741;28;20533;-68
2023/05/22 17:00:00;;;;;;;0.70;0.20;;;26.80;1.00;;;;;;4954073;29;20459;-69
2023/05/22 17:02:29;;;;;;;0.70;0.10;;;26.70;1.00;;;;;;4953471;28;20628;-69
2023/05/22 17:04:57;;;;;;;3.50;3.13;;;26.40;1.00;;;;;;4959261;28;20470;-69
2023/05/22 17:07:25;;;;;;;1.03;0.93;;;26.10;1.00;;;;;;4955129;28;20569;-69
2023/05/22 17:09:54;;;;;;;1.63;1.53;;;25.70;1.00;;;;;;4955308;28;20852;-68